createdAt,value
2023-05-08T00:01:23.163Z,16.20
2023-05-08T00:04:09.734Z,16.20
2023-05-08T00:06:55.993Z,16.20
2023-05-08T00:09:42.289Z,16.20
2023-05-08T00:12:28.141Z,16.10
2023-05-08T00:15:14.095Z,16.10
2023-05-08T00:18:00.301Z,16.10
2023-05-08T00:20:46.689Z,16.10
2023-05-08T00:23:33.141Z,16.00
2023-05-08T00:26:19.329Z,16.00
2023-05-08T00:29:06.742Z,16.00
2023-05-08T00:31:53.005Z,16.00
2023-05-08T00:34:39.229Z,16.00
2023-05-08T00:37:25.889Z,16.00
2023-05-08T00:40:15.188Z,15.90
2023-05-08T00:43:02.215Z,15.90
2023-05-08T00:45:48.171Z,15.90
2023-05-08T00:48:36.043Z,15.90
2023-05-08T00:51:22.778Z,15.90
2023-05-08T00:54:08.969Z,15.90
2023-05-08T00:56:55.848Z,15.80
2023-05-08T00:59:43.376Z,15.80
2023-05-08T01:02:31.724Z,15.80
2023-05-08T01:05:17.914Z,15.70
2023-05-08T01:08:04.268Z,15.70
2023-05-08T01:11:04.553Z,15.60
2023-05-08T01:14:09.113Z,15.60
2023-05-08T01:17:22.859Z,15.60
2023-05-08T01:20:46.908Z,15.60
2023-05-08T01:24:11.325Z,15.50
2023-05-08T01:27:31.555Z,15.50
2023-05-08T01:30:29.952Z,15.50
2023-05-08T01:33:25.472Z,15.50
2023-05-08T01:36:20.999Z,15.40
2023-05-08T01:39:12.961Z,15.40
2023-05-08T01:42:41.066Z,15.40
2023-05-08T01:45:32.238Z,15.30
2023-05-08T01:48:24.430Z,15.30
2023-05-08T01:51:18.167Z,15.30
2023-05-08T01:54:10.132Z,15.20
2023-05-08T01:56:58.409Z,15.20
2023-05-08T01:59:45.944Z,15.20
2023-05-08T02:02:34.598Z,15.20
2023-05-08T02:05:22.751Z,15.20
2023-05-08T02:08:11.312Z,15.20
2023-05-08T02:10:59.332Z,15.10
2023-05-08T02:13:48.905Z,15.10
2023-05-08T02:16:37.767Z,15.00
2023-05-08T02:19:27.105Z,14.90
2023-05-08T02:22:15.243Z,14.90
2023-05-08T02:25:01.757Z,14.80
2023-05-08T02:27:49.611Z,14.80
2023-05-08T02:30:37.341Z,14.80
2023-05-08T02:33:24.711Z,14.80
2023-05-08T02:36:15.932Z,14.70
2023-05-08T02:39:03.795Z,14.70
2023-05-08T02:41:51.010Z,14.60
2023-05-08T02:44:37.362Z,14.60
2023-05-08T02:47:29.260Z,14.60
2023-05-08T02:50:37.484Z,14.50
2023-05-08T02:53:32.890Z,14.50
2023-05-08T02:56:27.953Z,14.50
2023-05-08T02:59:18.377Z,14.50
2023-05-08T03:02:14.186Z,14.50
2023-05-08T03:05:07.989Z,14.40
2023-05-08T03:07:57.486Z,14.30
2023-05-08T03:10:50.035Z,14.30
2023-05-08T03:13:40.986Z,14.30
2023-05-08T03:16:32.088Z,14.30
2023-05-08T03:19:27.355Z,14.30
2023-05-08T03:22:16.472Z,14.10
2023-05-08T03:25:06.442Z,14.10
2023-05-08T03:27:56.400Z,14.10
2023-05-08T03:30:43.744Z,14.10
2023-05-08T03:33:34.129Z,14.10
2023-05-08T03:36:21.413Z,14.10
2023-05-08T03:39:08.455Z,14.00
2023-05-08T03:41:56.813Z,14.00
2023-05-08T03:44:43.999Z,13.90
2023-05-08T03:47:30.223Z,14.00
2023-05-08T03:50:17.168Z,13.90
2023-05-08T03:53:03.931Z,13.90
2023-05-08T03:55:50.093Z,13.90
2023-05-08T03:58:39.234Z,13.90
2023-05-08T04:01:42.690Z,13.80
2023-05-08T04:04:42.445Z,13.80
2023-05-08T04:07:44.118Z,13.80
2023-05-08T04:10:42.327Z,13.80
2023-05-08T04:13:32.323Z,13.70
2023-05-08T04:16:27.166Z,13.70
2023-05-08T04:19:20.739Z,13.60
2023-05-08T04:22:09.412Z,13.50
2023-05-08T04:24:59.514Z,13.40
2023-05-08T04:27:46.469Z,13.40
2023-05-08T04:30:33.279Z,13.50
2023-05-08T04:33:19.616Z,13.40
2023-05-08T04:36:11.052Z,13.40
2023-05-08T04:38:59.005Z,13.30
2023-05-08T04:41:48.017Z,13.20
2023-05-08T04:44:34.394Z,13.10
2023-05-08T04:47:21.321Z,13.10
2023-05-08T04:50:08.334Z,13.00
2023-05-08T04:52:55.795Z,13.10
2023-05-08T04:55:42.484Z,13.10
2023-05-08T04:58:29.069Z,13.10
2023-05-08T05:01:15.939Z,13.10
2023-05-08T05:04:02.249Z,13.10
2023-05-08T05:06:48.918Z,13.00
2023-05-08T05:09:37.064Z,13.00
2023-05-08T05:12:24.113Z,13.10
2023-05-08T05:15:10.815Z,13.00
2023-05-08T05:17:58.598Z,13.00
2023-05-08T05:20:44.743Z,13.00
2023-05-08T05:23:32.088Z,13.00
2023-05-08T05:26:19.928Z,13.00
2023-05-08T05:29:06.272Z,13.00
2023-05-08T05:31:52.960Z,13.00
2023-05-08T05:34:40.036Z,13.00
2023-05-08T05:37:26.943Z,13.00
2023-05-08T05:40:14.441Z,13.00
2023-05-08T05:43:01.872Z,13.10
2023-05-08T05:45:48.252Z,13.10
2023-05-08T05:48:34.574Z,13.20
2023-05-08T05:51:21.048Z,13.10
2023-05-08T05:54:08.124Z,13.20
2023-05-08T05:56:54.978Z,13.30
2023-05-08T05:59:41.296Z,13.30
2023-05-08T06:02:28.008Z,13.20
2023-05-08T06:05:15.226Z,13.10
2023-05-08T06:08:01.525Z,13.10
2023-05-08T06:10:48.630Z,13.10
2023-05-08T06:13:34.680Z,13.10
2023-05-08T06:16:23.127Z,13.00
2023-05-08T06:19:09.437Z,13.00
2023-05-08T06:21:55.679Z,13.00
2023-05-08T06:24:41.714Z,13.00
2023-05-08T06:27:27.660Z,13.00
2023-05-08T06:30:13.792Z,13.00
2023-05-08T06:33:00.215Z,13.00
2023-05-08T06:35:47.897Z,13.00
2023-05-08T06:38:33.867Z,13.10
2023-05-08T06:41:19.705Z,13.10
2023-05-08T06:44:05.707Z,13.20
2023-05-08T06:46:52.014Z,13.30
2023-05-08T06:49:38.268Z,13.50
2023-05-08T06:52:25.774Z,13.50
2023-05-08T06:55:12.214Z,13.60
2023-05-08T06:57:58.574Z,13.60
2023-05-08T07:00:44.727Z,13.70
2023-05-08T07:03:31.247Z,13.60
2023-05-08T07:06:17.228Z,13.70
2023-05-08T07:09:03.620Z,13.70
2023-05-08T07:11:50.284Z,13.80
2023-05-08T07:14:36.846Z,14.00
2023-05-08T07:17:23.041Z,14.10
2023-05-08T07:20:09.492Z,14.10
2023-05-08T07:22:55.251Z,14.20
2023-05-08T07:25:41.209Z,14.30
2023-05-08T07:28:27.318Z,14.20
2023-05-08T07:31:13.257Z,14.20
2023-05-08T07:33:59.851Z,14.20
2023-05-08T07:36:46.262Z,14.20
2023-05-08T07:39:32.293Z,14.20
2023-05-08T07:42:18.364Z,14.30
2023-05-08T07:45:04.798Z,14.30
2023-05-08T07:47:56.119Z,14.40
2023-05-08T07:50:42.618Z,14.50
2023-05-08T07:53:28.689Z,14.50
2023-05-08T07:56:14.574Z,14.70
2023-05-08T07:59:00.699Z,14.60
2023-05-08T08:01:47.546Z,14.80
2023-05-08T08:04:34.018Z,15.00
2023-05-08T08:07:20.477Z,15.20
2023-05-08T08:10:07.382Z,15.40
2023-05-08T08:12:53.654Z,15.60
2023-05-08T08:15:39.800Z,15.70
2023-05-08T08:18:25.986Z,15.80
2023-05-08T08:21:12.168Z,15.90
2023-05-08T08:23:59.240Z,15.90
2023-05-08T08:26:45.433Z,16.10
2023-05-08T08:29:32.309Z,16.30
2023-05-08T08:32:18.591Z,16.30
2023-05-08T08:35:05.417Z,16.40
2023-05-08T08:37:51.573Z,16.40
2023-05-08T08:40:41.761Z,16.40
2023-05-08T08:43:28.602Z,16.50
2023-05-08T08:46:15.429Z,16.60
2023-05-08T08:49:04.907Z,16.60
2023-05-08T08:51:54.627Z,16.80
2023-05-08T08:54:43.597Z,16.80
2023-05-08T08:57:34.309Z,16.60
2023-05-08T09:00:22.291Z,16.50
2023-05-08T09:03:09.052Z,16.50
2023-05-08T09:05:56.189Z,16.40
2023-05-08T09:08:43.257Z,16.30
2023-05-08T09:11:29.261Z,16.20
2023-05-08T09:14:15.261Z,16.30
2023-05-08T09:17:01.653Z,16.30
2023-05-08T09:19:49.653Z,16.40
2023-05-08T09:22:39.150Z,16.30
2023-05-08T09:25:25.356Z,16.30
2023-05-08T09:28:25.897Z,16.40
2023-05-08T09:31:12.198Z,16.70
2023-05-08T09:33:58.588Z,16.70
2023-05-08T09:36:44.887Z,16.70
2023-05-08T09:39:31.121Z,16.80
2023-05-08T09:42:17.562Z,17.10
2023-05-08T09:45:03.475Z,17.40
2023-05-08T09:47:50.821Z,17.40
2023-05-08T09:50:37.715Z,17.60
2023-05-08T09:53:31.767Z,17.80
2023-05-08T09:56:29.768Z,17.90
2023-05-08T09:59:30.828Z,17.90
2023-05-08T10:02:20.332Z,18.10
2023-05-08T10:05:24.605Z,18.20
2023-05-08T10:08:25.237Z,18.40
2023-05-08T10:11:16.592Z,18.50
2023-05-08T10:14:03.181Z,18.60
2023-05-08T10:16:54.296Z,18.70
2023-05-08T10:19:46.078Z,18.90
2023-05-08T10:22:36.168Z,19.20
2023-05-08T10:25:23.378Z,19.30
2023-05-08T10:28:36.937Z,19.20
2023-05-08T10:31:26.220Z,19.30
2023-05-08T10:34:20.907Z,19.50
2023-05-08T10:37:11.579Z,20.10
2023-05-08T10:39:58.836Z,20.50
2023-05-08T10:42:45.637Z,20.70
2023-05-08T10:45:32.310Z,21.00
2023-05-08T10:48:31.908Z,21.30
2023-05-08T10:52:01.261Z,21.60
2023-05-08T10:55:04.377Z,21.40
2023-05-08T10:58:29.663Z,21.30
2023-05-08T11:01:16.958Z,21.30
2023-05-08T11:04:23.442Z,21.30
2023-05-08T11:07:09.805Z,21.50
2023-05-08T11:10:08.020Z,21.70
2023-05-08T11:12:54.963Z,21.90
2023-05-08T11:15:42.168Z,22.00
2023-05-08T11:18:41.822Z,22.10
2023-05-08T11:21:34.828Z,22.20
2023-05-08T11:24:35.941Z,22.30
2023-05-08T11:27:48.295Z,22.50
2023-05-08T11:30:36.968Z,22.70
2023-05-08T11:33:29.427Z,22.80
2023-05-08T11:36:25.531Z,22.70
2023-05-08T11:39:12.833Z,22.90
2023-05-08T11:42:24.884Z,23.00
2023-05-08T11:45:14.006Z,23.00
2023-05-08T11:48:01.960Z,22.80
2023-05-08T11:50:49.758Z,22.60
2023-05-08T11:53:37.619Z,22.10
2023-05-08T11:56:24.639Z,22.00
2023-05-08T11:59:10.920Z,22.10
2023-05-08T12:02:07.898Z,22.10
2023-05-08T12:04:55.209Z,22.40
2023-05-08T12:07:48.748Z,22.20
2023-05-08T12:10:53.750Z,22.40
2023-05-08T12:13:40.483Z,22.30
2023-05-08T12:16:26.638Z,22.40
2023-05-08T12:19:14.054Z,22.40
2023-05-08T12:22:00.694Z,22.20
2023-05-08T12:24:46.926Z,22.20
2023-05-08T12:27:33.047Z,22.50
2023-05-08T12:30:19.938Z,22.60
2023-05-08T12:33:07.202Z,22.60
2023-05-08T12:35:53.642Z,22.50
2023-05-08T12:38:40.257Z,22.40
2023-05-08T12:41:26.991Z,22.40
2023-05-08T12:44:31.394Z,22.30
2023-05-08T12:47:20.680Z,22.00
2023-05-08T12:50:09.994Z,21.80
2023-05-08T12:53:03.501Z,21.70
2023-05-08T12:55:55.874Z,21.60
2023-05-08T12:58:42.041Z,21.50
2023-05-08T13:01:28.232Z,21.60
2023-05-08T13:04:14.815Z,21.50
2023-05-08T13:07:01.273Z,21.40
2023-05-08T13:10:04.941Z,21.30
2023-05-08T13:12:52.324Z,21.00
2023-05-08T13:15:38.580Z,20.80
2023-05-08T13:18:28.081Z,20.60
2023-05-08T13:21:14.022Z,20.40
2023-05-08T13:24:01.506Z,20.20
2023-05-08T13:26:47.664Z,20.10
2023-05-08T13:29:33.784Z,20.00
2023-05-08T13:32:19.969Z,20.00
2023-05-08T13:35:06.554Z,20.00
2023-05-08T13:37:52.689Z,20.10
2023-05-08T13:40:39.004Z,20.50
2023-05-08T13:43:25.474Z,20.90
2023-05-08T13:46:11.523Z,21.10
2023-05-08T13:48:58.026Z,21.00
2023-05-08T13:51:47.084Z,20.80
2023-05-08T13:54:35.822Z,20.60
2023-05-08T13:57:22.663Z,20.60
2023-05-08T14:00:10.095Z,20.50
2023-05-08T14:02:56.526Z,20.40
2023-05-08T14:05:42.748Z,20.30
2023-05-08T14:08:29.546Z,20.10
2023-05-08T14:11:15.858Z,19.90
2023-05-08T14:14:01.821Z,19.80
2023-05-08T14:16:48.907Z,19.70
2023-05-08T14:19:35.059Z,19.70
2023-05-08T14:22:21.157Z,19.60
2023-05-08T14:25:07.991Z,19.60
2023-05-08T14:27:53.907Z,19.40
2023-05-08T14:30:39.990Z,19.40
2023-05-08T14:33:26.155Z,19.40
2023-05-08T14:36:12.133Z,19.50
2023-05-08T14:38:58.264Z,19.50
2023-05-08T14:41:54.916Z,19.40
2023-05-08T14:44:46.163Z,19.30
2023-05-08T14:47:33.046Z,19.30
2023-05-08T14:50:19.437Z,19.30
2023-05-08T14:53:05.964Z,19.30
2023-05-08T14:55:52.221Z,19.30
2023-05-08T14:58:38.370Z,19.20
2023-05-08T15:01:24.645Z,19.10
2023-05-08T15:04:11.304Z,19.10
2023-05-08T15:06:57.329Z,19.00
2023-05-08T15:09:43.636Z,19.10
2023-05-08T15:12:29.755Z,19.10
2023-05-08T15:15:16.572Z,19.10
2023-05-08T15:18:02.603Z,19.20
2023-05-08T15:20:48.655Z,19.10
2023-05-08T15:23:34.489Z,19.00
2023-05-08T15:26:21.872Z,19.10
2023-05-08T15:29:08.373Z,19.10
2023-05-08T15:31:54.531Z,19.20
2023-05-08T15:34:40.916Z,19.10
2023-05-08T15:37:27.758Z,19.20
2023-05-08T15:40:13.784Z,19.30
2023-05-08T15:43:00.245Z,19.40
2023-05-08T15:45:46.878Z,19.30
2023-05-08T15:48:33.580Z,19.40
2023-05-08T15:51:19.659Z,19.30
2023-05-08T15:54:05.725Z,19.20
2023-05-08T15:56:51.717Z,19.20
2023-05-08T15:59:37.813Z,19.10
2023-05-08T16:02:23.936Z,19.00
2023-05-08T16:05:10.405Z,19.00
2023-05-08T16:07:56.686Z,18.80
2023-05-08T16:10:42.892Z,18.70
2023-05-08T16:13:29.255Z,18.70
2023-05-08T16:16:15.550Z,18.70
2023-05-08T16:19:02.004Z,18.50
2023-05-08T16:21:48.006Z,18.60
2023-05-08T16:24:34.156Z,18.70
2023-05-08T16:27:20.482Z,18.60
2023-05-08T16:30:07.115Z,18.60
2023-05-08T16:32:53.215Z,18.50
2023-05-08T16:35:40.281Z,18.40
2023-05-08T16:38:26.761Z,18.30
2023-05-08T16:41:13.443Z,18.30
2023-05-08T16:43:59.789Z,18.30
2023-05-08T16:46:46.061Z,18.20
2023-05-08T16:49:31.940Z,18.20
2023-05-08T16:52:18.146Z,18.20
2023-05-08T16:55:04.628Z,18.30
2023-05-08T16:57:53.533Z,18.20
2023-05-08T17:00:39.910Z,18.10
2023-05-08T17:03:26.081Z,18.00
2023-05-08T17:06:12.276Z,17.90
2023-05-08T17:08:58.726Z,17.80
2023-05-08T17:11:44.997Z,17.80
2023-05-08T17:14:31.178Z,17.80
2023-05-08T17:17:17.368Z,17.80
2023-05-08T17:20:07.152Z,17.80
2023-05-08T17:22:56.064Z,17.80
2023-05-08T17:25:42.042Z,17.80
2023-05-08T17:28:28.033Z,17.80
2023-05-08T17:31:15.572Z,17.80
2023-05-08T17:34:01.619Z,17.80
2023-05-08T17:36:48.339Z,17.80
2023-05-08T17:39:34.390Z,17.80
2023-05-08T17:42:20.827Z,17.80
2023-05-08T17:45:07.683Z,17.80
2023-05-08T17:47:53.864Z,17.80
2023-05-08T17:50:42.188Z,17.80
2023-05-08T17:53:31.972Z,17.80
2023-05-08T17:56:20.625Z,17.80
2023-05-08T17:59:06.901Z,17.70
2023-05-08T18:01:54.524Z,17.80
2023-05-08T18:04:41.217Z,17.80
2023-05-08T18:07:27.931Z,17.80
2023-05-08T18:10:14.253Z,17.80
2023-05-08T18:13:00.514Z,17.80
2023-05-08T18:15:46.702Z,17.70
2023-05-08T18:18:32.733Z,17.60
2023-05-08T18:21:18.882Z,17.50
2023-05-08T18:24:05.287Z,17.50
2023-05-08T18:26:52.694Z,17.40
2023-05-08T18:29:39.186Z,17.30
2023-05-08T18:32:25.129Z,17.20
2023-05-08T18:35:11.174Z,17.20
2023-05-08T18:37:57.462Z,17.10
2023-05-08T18:40:44.233Z,17.10
2023-05-08T18:43:30.920Z,17.00
2023-05-08T18:46:17.886Z,17.00
2023-05-08T18:49:04.386Z,16.90
2023-05-08T18:51:50.674Z,16.80
2023-05-08T18:54:36.795Z,16.70
2023-05-08T18:57:22.856Z,16.70
2023-05-08T19:00:09.385Z,16.60
2023-05-08T19:02:55.614Z,16.50
2023-05-08T19:05:42.148Z,16.50
2023-05-08T19:08:27.957Z,16.40
2023-05-08T19:11:14.136Z,16.30
2023-05-08T19:14:00.262Z,16.20
2023-05-08T19:16:46.278Z,16.10
2023-05-08T19:19:32.263Z,16.00
2023-05-08T19:22:18.256Z,16.00
2023-05-08T19:25:04.628Z,15.90
2023-05-08T19:27:50.867Z,15.90
2023-05-08T19:30:36.803Z,15.90
2023-05-08T19:33:22.991Z,15.80
2023-05-08T19:36:09.064Z,15.80
2023-05-08T19:38:55.193Z,15.80
2023-05-08T19:41:41.251Z,15.80
2023-05-08T19:44:28.085Z,15.80
2023-05-08T19:47:14.338Z,15.70
2023-05-08T19:50:00.223Z,15.60
2023-05-08T19:52:47.900Z,15.60
2023-05-08T19:55:34.293Z,15.60
2023-05-08T19:58:20.230Z,15.60
2023-05-08T20:01:06.562Z,15.50
2023-05-08T20:03:53.460Z,15.50
2023-05-08T20:06:39.770Z,15.60
2023-05-08T20:09:25.900Z,15.50
2023-05-08T20:12:11.897Z,15.50
2023-05-08T20:14:57.872Z,15.50
2023-05-08T20:17:44.210Z,15.40
2023-05-08T20:20:30.685Z,15.40
2023-05-08T20:23:16.760Z,15.40
2023-05-08T20:26:05.237Z,15.40
2023-05-08T20:28:51.268Z,15.40
2023-05-08T20:31:37.535Z,15.40
2023-05-08T20:34:23.673Z,15.40
2023-05-08T20:37:09.642Z,15.30
2023-05-08T20:39:56.446Z,15.30
2023-05-08T20:42:42.874Z,15.30
2023-05-08T20:45:29.402Z,15.40
2023-05-08T20:48:18.804Z,15.30
2023-05-08T20:51:05.140Z,15.30
2023-05-08T20:53:51.573Z,15.20
2023-05-08T20:56:37.704Z,15.20
2023-05-08T20:59:24.052Z,15.10
2023-05-08T21:02:10.358Z,15.00
2023-05-08T21:04:56.426Z,14.90
2023-05-08T21:07:42.768Z,14.80
2023-05-08T21:10:31.282Z,14.70
2023-05-08T21:13:17.617Z,14.60
2023-05-08T21:16:05.654Z,14.50
2023-05-08T21:18:51.636Z,14.50
2023-05-08T21:21:37.577Z,14.40
2023-05-08T21:24:23.806Z,14.30
2023-05-08T21:27:12.813Z,14.20
2023-05-08T21:29:58.867Z,14.20
2023-05-08T21:32:45.623Z,14.10
2023-05-08T21:35:32.136Z,14.00
2023-05-08T21:38:17.974Z,14.00
2023-05-08T21:41:11.136Z,14.00
2023-05-08T21:43:57.546Z,13.90
2023-05-08T21:46:44.044Z,13.90
2023-05-08T21:49:30.472Z,13.80
2023-05-08T21:52:22.016Z,13.70
2023-05-08T21:55:09.185Z,13.70
2023-05-08T21:57:55.342Z,13.70
2023-05-08T22:00:41.383Z,13.70
2023-05-08T22:03:27.474Z,13.60
2023-05-08T22:06:13.659Z,13.50
2023-05-08T22:08:59.700Z,13.40
2023-05-08T22:11:45.801Z,13.40
2023-05-08T22:14:31.781Z,13.30
2023-05-08T22:17:18.129Z,13.30
2023-05-08T22:20:04.686Z,13.30
2023-05-08T22:22:51.177Z,13.30
2023-05-08T22:25:37.327Z,13.30
2023-05-08T22:28:23.576Z,13.30
2023-05-08T22:31:09.601Z,13.20
2023-05-08T22:33:58.107Z,13.20
2023-05-08T22:36:44.417Z,13.20
2023-05-08T22:39:30.344Z,13.20
2023-05-08T22:42:17.417Z,13.20
2023-05-08T22:45:03.861Z,13.20
2023-05-08T22:47:50.798Z,13.20
2023-05-08T22:50:37.362Z,13.20
2023-05-08T22:53:23.472Z,13.20
2023-05-08T22:56:09.540Z,13.20
2023-05-08T22:58:55.843Z,13.20
2023-05-08T23:01:41.974Z,13.10
2023-05-08T23:04:31.204Z,13.00
2023-05-08T23:07:17.783Z,12.90
2023-05-08T23:10:03.916Z,12.80
2023-05-08T23:12:49.928Z,12.70
2023-05-08T23:15:36.911Z,12.60
2023-05-08T23:18:23.055Z,12.50
2023-05-08T23:21:09.059Z,12.40
2023-05-08T23:23:55.150Z,12.30
2023-05-08T23:26:42.210Z,12.40
2023-05-08T23:29:28.734Z,12.40
2023-05-08T23:32:15.330Z,12.40
2023-05-08T23:35:01.523Z,12.30
2023-05-08T23:37:47.498Z,12.20
2023-05-08T23:40:36.904Z,12.10
2023-05-08T23:43:22.915Z,12.00
2023-05-08T23:46:10.074Z,12.00
2023-05-08T23:48:56.145Z,12.00
2023-05-08T23:51:42.145Z,12.00
2023-05-08T23:54:28.293Z,12.00
2023-05-08T23:57:14.770Z,12.00
